createdAt,value
2023-02-14T00:00:49.790Z,102895.94
2023-02-14T00:03:16.445Z,102886.56
2023-02-14T00:05:43.116Z,102886.53
2023-02-14T00:08:09.748Z,102894.88
2023-02-14T00:10:36.381Z,102884.59
2023-02-14T00:13:05.973Z,102890.13
2023-02-14T00:15:32.481Z,102887.69
2023-02-14T00:18:03.066Z,102879.72
2023-02-14T00:20:29.916Z,102890.25
2023-02-14T00:22:56.500Z,102888.06
2023-02-14T00:25:23.166Z,102890.38
2023-02-14T00:27:49.890Z,102900.81
2023-02-14T00:30:16.861Z,102893.47
2023-02-14T00:32:43.566Z,102894.66
2023-02-14T00:35:11.280Z,102893.63
2023-02-14T00:37:40.656Z,102899.00
2023-02-14T00:40:07.996Z,102898.47
2023-02-14T00:42:34.893Z,102896.31
2023-02-14T00:45:01.383Z,102897.50
2023-02-14T00:47:28.121Z,102899.81
2023-02-14T00:49:54.714Z,102902.38
2023-02-14T00:52:21.361Z,102900.84
2023-02-14T00:54:47.932Z,102896.06
2023-02-14T00:57:14.468Z,102906.72
2023-02-14T00:59:59.240Z,102907.50
2023-02-14T01:02:26.845Z,102906.22
2023-02-14T01:04:53.470Z,102906.47
2023-02-14T01:07:22.691Z,102909.31
2023-02-14T01:09:49.321Z,102905.19
2023-02-14T01:12:15.902Z,102909.31
2023-02-14T01:15:01.149Z,102907.00
2023-02-14T01:17:36.922Z,102913.66
2023-02-14T01:20:04.361Z,102900.44
2023-02-14T01:30:51.860Z,102904.94
2023-02-14T01:33:18.503Z,102900.94
2023-02-14T01:35:45.241Z,102907.25
2023-02-14T01:38:11.808Z,102904.16
2023-02-14T01:40:44.154Z,102904.69
2023-02-14T01:43:17.332Z,102903.16
2023-02-14T01:45:44.720Z,102907.53
2023-02-14T01:48:13.153Z,102906.72
2023-02-14T01:50:45.165Z,102905.97
2023-02-14T01:53:24.442Z,102909.31
2023-02-14T01:55:58.772Z,102914.06
2023-02-14T01:58:29.757Z,102917.13
2023-02-14T02:00:59.869Z,102911.09
2023-02-14T02:03:32.438Z,102908.78
2023-02-14T02:06:05.120Z,102904.94
2023-02-14T02:08:35.481Z,102901.13
2023-02-14T02:11:02.273Z,102897.25
2023-02-14T02:13:28.904Z,102894.06
2023-02-14T02:16:26.044Z,102894.16
2023-02-14T02:19:13.806Z,102896.84
2023-02-14T02:21:59.490Z,102885.47
2023-02-14T02:25:00.259Z,102887.38
2023-02-14T02:27:45.161Z,102889.16
2023-02-14T02:30:20.911Z,102881.84
2023-02-14T02:33:19.848Z,102883.41
2023-02-14T02:36:16.088Z,102873.13
2023-02-14T02:38:52.288Z,102874.66
2023-02-14T02:41:35.649Z,102869.16
2023-02-14T02:44:14.568Z,102870.31
2023-02-14T02:46:49.805Z,102867.72
2023-02-14T02:49:44.232Z,102866.97
2023-02-14T02:52:50.426Z,102858.22
2023-02-14T02:55:25.570Z,102855.94
2023-02-14T02:57:55.261Z,102856.31
2023-02-14T03:00:24.238Z,102845.41
2023-02-14T03:03:13.915Z,102854.63
2023-02-14T03:05:41.323Z,102845.16
2023-02-14T03:08:07.851Z,102844.09
2023-02-14T03:10:38.091Z,102842.59
2023-02-14T03:13:10.899Z,102842.22
2023-02-14T03:16:08.001Z,102841.41
2023-02-14T03:18:58.139Z,102839.38
2023-02-14T03:21:54.484Z,102839.50
2023-02-14T03:24:46.222Z,102842.84
2023-02-14T03:27:24.955Z,102837.19
2023-02-14T03:30:03.827Z,102840.38
2023-02-14T03:32:51.819Z,102839.50
2023-02-14T03:35:34.765Z,102834.13
2023-02-14T03:38:15.791Z,102833.34
2023-02-14T03:40:58.219Z,102828.72
2023-02-14T03:43:31.805Z,102828.44
2023-02-14T03:46:28.552Z,102822.06
2023-02-14T03:48:58.603Z,102822.81
2023-02-14T03:51:27.886Z,102822.06
2023-02-14T03:53:57.666Z,102820.50
2023-02-14T03:56:36.481Z,102823.59
2023-02-14T03:59:10.534Z,102822.06
2023-02-14T04:02:01.208Z,102817.44
2023-02-14T04:04:32.665Z,102807.66
2023-02-14T04:06:59.235Z,102812.56
2023-02-14T04:09:25.790Z,102813.31
2023-02-14T04:11:52.451Z,102802.53
2023-02-14T04:14:19.048Z,102803.72
2023-02-14T04:17:04.169Z,102804.34
2023-02-14T04:19:30.782Z,102804.13
2023-02-14T04:21:57.317Z,102803.72
2023-02-14T04:24:23.895Z,102796.78
2023-02-14T04:27:09.016Z,102801.50
2023-02-14T04:29:49.419Z,102803.31
2023-02-14T04:32:21.688Z,102805.09
2023-02-14T04:34:48.844Z,102801.75
2023-02-14T04:37:17.922Z,102799.06
2023-02-14T04:39:44.551Z,102804.06
2023-02-14T04:42:11.228Z,102798.94
2023-02-14T04:44:40.621Z,102799.69
2023-02-14T04:47:07.741Z,102791.25
2023-02-14T04:49:35.303Z,102789.72
2023-02-14T04:52:02.490Z,102792.00
2023-02-14T04:54:29.268Z,102789.59
2023-02-14T04:56:55.826Z,102781.00
2023-02-14T04:59:24.754Z,102781.63
2023-02-14T05:01:52.535Z,102779.34
2023-02-14T05:04:19.377Z,102780.63
2023-02-14T05:06:46.293Z,102774.47
2023-02-14T05:09:13.189Z,102766.03
2023-02-14T05:11:39.785Z,102768.53
2023-02-14T05:14:06.481Z,102775.69
2023-02-14T05:16:33.199Z,102772.50
2023-02-14T05:18:59.825Z,102775.84
2023-02-14T05:21:26.663Z,102770.09
2023-02-14T05:23:53.230Z,102767.38
2023-02-14T05:26:19.814Z,102769.53
2023-02-14T05:28:46.352Z,102773.50
2023-02-14T05:31:12.968Z,102770.69
2023-02-14T05:33:39.596Z,102766.84
2023-02-14T05:36:06.518Z,102770.09
2023-02-14T05:38:33.878Z,102770.22
2023-02-14T05:41:02.701Z,102768.66
2023-02-14T05:43:30.354Z,102775.84
2023-02-14T05:45:57.767Z,102775.06
2023-02-14T05:48:24.616Z,102780.97
2023-02-14T05:50:51.561Z,102778.38
2023-02-14T05:53:18.253Z,102777.38
2023-02-14T05:55:45.013Z,102777.09
2023-02-14T05:58:12.566Z,102779.16
2023-02-14T06:00:41.235Z,102780.47
2023-02-14T06:03:08.506Z,102784.91
2023-02-14T06:05:35.091Z,102786.56
2023-02-14T06:08:01.733Z,102783.38
2023-02-14T06:10:28.442Z,102776.06
2023-02-14T06:12:57.669Z,102779.28
2023-02-14T06:15:24.437Z,102788.81
2023-02-14T06:17:52.988Z,102790.09
2023-02-14T06:20:19.753Z,102787.75
2023-02-14T06:22:46.353Z,102793.00
2023-02-14T06:25:13.094Z,102789.41
2023-02-14T06:27:39.656Z,102796.50
2023-02-14T06:30:06.970Z,102794.81
2023-02-14T06:32:33.640Z,102793.63
2023-02-14T06:35:00.832Z,102798.75
2023-02-14T06:37:27.374Z,102793.63
2023-02-14T06:39:53.972Z,102796.34
2023-02-14T06:42:20.605Z,102790.59
2023-02-14T06:44:47.150Z,102798.53
2023-02-14T06:47:13.754Z,102795.72
2023-02-14T06:49:40.392Z,102796.88
2023-02-14T06:52:07.133Z,102795.72
2023-02-14T06:54:33.776Z,102796.22
2023-02-14T06:57:00.544Z,102802.91
2023-02-14T06:59:27.193Z,102799.59
2023-02-14T07:01:53.994Z,102801.25
2023-02-14T07:04:20.698Z,102804.16
2023-02-14T07:06:47.370Z,102800.34
2023-02-14T07:09:18.242Z,102802.63
2023-02-14T07:11:45.759Z,102804.81
2023-02-14T07:14:12.685Z,102808.94
2023-02-14T07:16:39.344Z,102803.13
2023-02-14T07:19:06.281Z,102805.94
2023-02-14T07:21:32.854Z,102805.56
2023-02-14T07:23:59.478Z,102803.81
2023-02-14T07:26:26.095Z,102811.81
2023-02-14T07:28:52.724Z,102808.09
2023-02-14T07:31:23.547Z,102806.41
2023-02-14T07:33:51.577Z,102810.63
2023-02-14T07:36:18.869Z,102811.69
2023-02-14T07:38:45.493Z,102799.66
2023-02-14T07:41:12.131Z,102802.06
2023-02-14T07:43:39.740Z,102800.16
2023-02-14T07:46:06.925Z,102799.38
2023-02-14T07:48:34.450Z,102802.69
2023-02-14T07:51:01.807Z,102797.50
2023-02-14T07:53:28.683Z,102800.16
2023-02-14T07:55:55.421Z,102806.00
2023-02-14T07:58:22.092Z,102800.25
2023-02-14T08:00:48.881Z,102802.81
2023-02-14T08:03:16.104Z,102795.13
2023-02-14T08:05:43.086Z,102802.56
2023-02-14T08:08:09.728Z,102802.69
2023-02-14T08:10:36.311Z,102803.34
2023-02-14T08:13:03.647Z,102796.72
2023-02-14T08:15:51.507Z,102798.00
2023-02-14T08:18:19.383Z,102800.16
2023-02-14T08:20:49.744Z,102798.63
2023-02-14T08:23:18.107Z,102795.78
2023-02-14T08:25:45.065Z,102796.66
2023-02-14T08:28:13.673Z,102800.09
2023-02-14T08:30:41.387Z,102797.59
2023-02-14T08:33:08.207Z,102796.00
2023-02-14T08:35:35.937Z,102787.53
2023-02-14T08:38:03.245Z,102790.59
2023-02-14T08:40:30.434Z,102779.38
2023-02-14T08:42:57.048Z,102779.28
2023-02-14T08:45:23.644Z,102781.88
2023-02-14T08:47:50.635Z,102784.59
2023-02-14T08:50:18.883Z,102784.09
2023-02-14T08:52:45.939Z,102775.63
2023-02-14T08:55:13.754Z,102782.31
2023-02-14T08:57:40.742Z,102784.47
2023-02-14T09:00:09.872Z,102780.63
2023-02-14T09:02:36.641Z,102778.50
2023-02-14T09:05:03.658Z,102776.94
2023-02-14T09:07:30.492Z,102782.19
2023-02-14T09:09:57.086Z,102784.28
2023-02-14T09:12:23.715Z,102783.97
2023-02-14T09:14:50.293Z,102777.50
2023-02-14T09:17:16.964Z,102770.84
2023-02-14T09:19:43.610Z,102775.78
2023-02-14T09:22:11.465Z,102764.38
2023-02-14T09:24:40.071Z,102771.50
2023-02-14T09:27:07.656Z,102771.72
2023-02-14T09:29:34.626Z,102778.19
2023-02-14T09:32:02.561Z,102771.34
2023-02-14T09:34:30.048Z,102774.63
2023-02-14T09:36:56.764Z,102780.19
2023-02-14T09:39:23.600Z,102784.09
2023-02-14T09:42:14.957Z,102778.41
2023-02-14T09:44:51.721Z,102778.38
2023-02-14T09:47:33.309Z,102776.56
2023-02-14T09:50:00.557Z,102780.63
2023-02-14T09:52:29.922Z,102772.56
2023-02-14T09:55:01.203Z,102768.94
2023-02-14T09:57:45.030Z,102765.31
2023-02-14T10:00:34.352Z,102771.09
2023-02-14T10:03:09.873Z,102768.75
2023-02-14T10:05:44.189Z,102763.41
2023-02-14T10:08:29.421Z,102768.06
2023-02-14T10:11:06.317Z,102764.59
2023-02-14T10:13:46.209Z,102762.50
2023-02-14T10:16:37.680Z,102760.44
2023-02-14T10:19:13.914Z,102767.66
2023-02-14T10:21:48.117Z,102757.56
2023-02-14T10:24:27.564Z,102754.34
2023-02-14T10:27:03.156Z,102754.00
2023-02-14T10:29:30.059Z,102749.13
2023-02-14T10:32:00.312Z,102751.19
2023-02-14T10:34:38.925Z,102748.28
2023-02-14T10:37:31.987Z,102750.66
2023-02-14T10:40:01.552Z,102749.50
2023-02-14T10:42:45.581Z,102742.03
2023-02-14T10:45:34.353Z,102741.47
2023-02-14T10:48:21.141Z,102732.59
2023-02-14T10:50:50.759Z,102729.69
2023-02-14T10:53:17.311Z,102721.72
2023-02-14T10:55:50.332Z,102725.56
2023-02-14T10:58:21.134Z,102723.25
2023-02-14T11:01:10.063Z,102712.47
2023-02-14T11:03:39.333Z,102712.84
2023-02-14T11:06:07.146Z,102708.94
2023-02-14T11:08:36.597Z,102706.56
2023-02-14T11:11:13.813Z,102707.19
2023-02-14T11:13:41.137Z,102711.00
2023-02-14T11:16:12.882Z,102702.09
2023-02-14T11:18:41.107Z,102693.63
2023-02-14T11:21:12.134Z,102691.19
2023-02-14T11:23:38.717Z,102690.41
2023-02-14T11:26:11.739Z,102690.63
2023-02-14T11:28:49.421Z,102678.13
2023-02-14T11:31:26.126Z,102678.31
2023-02-14T11:33:54.245Z,102678.38
2023-02-14T11:36:21.563Z,102673.66
2023-02-14T11:39:03.081Z,102670.28
2023-02-14T11:41:50.617Z,102672.66
2023-02-14T11:44:26.981Z,102654.16
2023-02-14T11:46:56.038Z,102657.84
2023-02-14T11:49:32.809Z,102653.78
2023-02-14T11:52:15.360Z,102649.69
2023-02-14T11:54:44.857Z,102653.63
2023-02-14T11:57:33.305Z,102635.56
2023-02-14T12:00:04.719Z,102634.53
2023-02-14T12:02:43.522Z,102640.56
2023-02-14T12:05:19.042Z,102631.53
2023-02-14T12:07:47.820Z,102624.44
2023-02-14T12:10:17.376Z,102628.44
2023-02-14T12:13:00.504Z,102621.59
2023-02-14T12:15:27.108Z,102629.06
2023-02-14T12:18:02.495Z,102628.41
2023-02-14T12:20:40.739Z,102621.66
2023-02-14T12:23:18.247Z,102615.09
2023-02-14T12:25:57.784Z,102617.34
2023-02-14T12:28:44.653Z,102613.22
2023-02-14T12:31:13.299Z,102607.97
2023-02-14T12:33:40.878Z,102600.78
2023-02-14T12:36:36.267Z,102588.97
2023-02-14T12:39:23.234Z,102593.72
2023-02-14T12:41:52.813Z,102590.53
2023-02-14T12:44:38.198Z,102587.31
2023-02-14T12:47:32.218Z,102589.66
2023-02-14T12:50:03.879Z,102581.97
2023-02-14T12:52:33.492Z,102576.44
2023-02-14T12:55:03.074Z,102572.94
2023-02-14T12:57:48.119Z,102574.91
2023-02-14T13:01:07.333Z,102564.25
2023-02-14T13:04:10.746Z,102553.25
2023-02-14T13:06:42.860Z,102547.25
2023-02-14T13:09:27.140Z,102548.00
2023-02-14T13:12:31.791Z,102542.81
2023-02-14T13:15:29.695Z,102543.22
2023-02-14T13:18:03.652Z,102529.25
2023-02-14T13:20:48.056Z,102529.53
2023-02-14T13:23:20.699Z,102526.03
2023-02-14T13:25:54.353Z,102526.44
2023-02-14T13:28:22.008Z,102529.25
2023-02-14T13:30:48.777Z,102514.53
2023-02-14T13:33:40.639Z,102521.13
2023-02-14T13:36:10.125Z,102516.25
2023-02-14T13:38:43.503Z,102515.78
2023-02-14T13:41:11.087Z,102521.38
2023-02-14T13:44:01.762Z,102518.22
2023-02-14T13:46:34.431Z,102511.56
2023-02-14T13:49:15.092Z,102502.03
2023-02-14T13:52:01.273Z,102502.84
2023-02-14T13:54:35.836Z,102498.38
2023-02-14T13:57:24.856Z,102502.84
2023-02-14T14:00:19.553Z,102498.38
2023-02-14T14:02:50.020Z,102495.00
2023-02-14T14:05:32.478Z,102492.25
2023-02-14T14:08:38.767Z,102493.00
2023-02-14T14:11:33.271Z,102489.03
2023-02-14T14:14:01.778Z,102488.38
2023-02-14T14:16:35.135Z,102485.16
2023-02-14T14:19:24.693Z,102488.91
2023-02-14T14:22:01.770Z,102483.31
2023-02-14T14:24:34.363Z,102480.22
2023-02-14T14:27:05.903Z,102480.38
2023-02-14T14:29:46.821Z,102485.84
2023-02-14T14:32:37.817Z,102471.38
2023-02-14T14:35:23.224Z,102467.41
2023-02-14T14:37:57.245Z,102473.25
2023-02-14T14:40:31.678Z,102468.03
2023-02-14T14:43:06.356Z,102461.75
2023-02-14T14:45:33.000Z,102463.38
2023-02-14T14:48:08.259Z,102456.09
2023-02-14T14:50:36.512Z,102453.63
2023-02-14T14:53:09.725Z,102451.59
2023-02-14T14:55:38.188Z,102460.44
2023-02-14T14:58:08.990Z,102446.81
2023-02-14T15:00:42.497Z,102449.94
2023-02-14T15:03:11.955Z,102445.28
2023-02-14T15:05:50.212Z,102440.78
2023-02-14T15:08:27.784Z,102440.34
2023-02-14T15:11:02.643Z,102438.72
2023-02-14T15:13:50.655Z,102439.09
2023-02-14T15:16:18.527Z,102437.78
2023-02-14T15:18:45.784Z,102430.47
2023-02-14T15:21:13.647Z,102427.03
2023-02-14T15:23:43.979Z,102421.50
2023-02-14T15:26:18.152Z,102424.47
2023-02-14T15:28:45.056Z,102430.69
2023-02-14T15:31:12.014Z,102428.72
2023-02-14T15:33:39.204Z,102418.97
2023-02-14T15:36:15.377Z,102427.69
2023-02-14T15:38:43.354Z,102423.25
2023-02-14T15:41:10.335Z,102422.34
2023-02-14T15:43:37.860Z,102416.06
2023-02-14T15:46:36.940Z,102421.91
2023-02-14T15:49:10.637Z,102425.94
2023-02-14T15:51:38.478Z,102425.59
2023-02-14T15:54:31.145Z,102427.47
2023-02-14T15:56:58.805Z,102416.50
2023-02-14T15:59:29.803Z,102423.03
2023-02-14T16:02:17.192Z,102423.63
2023-02-14T16:04:44.320Z,102419.00
2023-02-14T16:07:26.639Z,102422.88
2023-02-14T16:10:18.156Z,102415.25
2023-02-14T16:12:57.857Z,102418.28
2023-02-14T16:15:38.791Z,102415.22
2023-02-14T16:18:32.020Z,102417.41
2023-02-14T16:21:10.921Z,102412.81
2023-02-14T16:23:38.013Z,102418.19
2023-02-14T16:26:08.399Z,102416.25
2023-02-14T16:28:36.920Z,102414.91
2023-02-14T16:31:10.130Z,102404.91
2023-02-14T16:33:39.615Z,102412.34
2023-02-14T16:36:27.981Z,102411.50
2023-02-14T16:38:55.575Z,102408.09
2023-02-14T16:41:28.667Z,102407.75
2023-02-14T16:43:56.308Z,102408.34
2023-02-14T16:46:26.177Z,102414.38
2023-02-14T16:48:53.141Z,102412.59
2023-02-14T16:51:25.804Z,102414.72
2023-02-14T16:53:53.687Z,102411.00
2023-02-14T16:56:27.921Z,102413.84
2023-02-14T16:58:57.478Z,102410.06
2023-02-14T17:01:24.544Z,102410.25
2023-02-14T17:03:51.244Z,102409.19
2023-02-14T17:06:21.623Z,102409.66
2023-02-14T17:08:50.827Z,102406.13
2023-02-14T17:11:17.634Z,102411.84
2023-02-14T17:13:45.519Z,102411.59
2023-02-14T17:16:15.582Z,102413.84
2023-02-14T17:18:47.536Z,102408.97
2023-02-14T17:21:15.874Z,102411.72
2023-02-14T17:23:42.495Z,102412.59
2023-02-14T17:26:11.124Z,102412.53
2023-02-14T17:28:37.991Z,102412.97
2023-02-14T17:31:04.965Z,102417.50
2023-02-14T17:33:33.204Z,102412.78
2023-02-14T17:36:12.075Z,102414.50
2023-02-14T17:38:39.777Z,102429.38
2023-02-14T17:41:19.353Z,102415.97
2023-02-14T17:43:46.190Z,102421.16
2023-02-14T17:46:14.258Z,102419.06
2023-02-14T17:48:42.097Z,102420.75
2023-02-14T17:51:09.583Z,102417.13
2023-02-14T17:53:36.278Z,102418.97
2023-02-14T17:56:06.774Z,102415.28
2023-02-14T17:58:33.437Z,102412.16
2023-02-14T18:01:09.069Z,102412.75
2023-02-14T18:03:36.092Z,102409.75
2023-02-14T18:06:03.924Z,102410.19
2023-02-14T18:08:33.960Z,102408.13
2023-02-14T18:11:03.924Z,102409.06
2023-02-14T18:13:31.695Z,102407.22
2023-02-14T18:16:01.945Z,102404.88
2023-02-14T18:18:28.514Z,102408.53
2023-02-14T18:20:57.190Z,102403.06
2023-02-14T18:23:23.812Z,102401.59
2023-02-14T18:25:55.961Z,102395.31
2023-02-14T18:28:25.021Z,102395.84
2023-02-14T18:30:52.671Z,102393.03
2023-02-14T18:33:20.175Z,102396.00
2023-02-14T18:35:47.329Z,102393.97
2023-02-14T18:38:14.344Z,102392.00
2023-02-14T18:40:41.440Z,102394.91
2023-02-14T18:43:08.001Z,102394.94
2023-02-14T18:45:39.350Z,102389.06
2023-02-14T18:48:06.249Z,102389.78
2023-02-14T18:50:34.031Z,102382.84
2023-02-14T18:53:00.816Z,102385.88
2023-02-14T18:55:28.731Z,102383.31
2023-02-14T18:57:55.384Z,102380.91
2023-02-14T19:00:22.684Z,102384.63
2023-02-14T19:02:49.295Z,102378.22
2023-02-14T19:05:15.866Z,102383.91
2023-02-14T19:07:42.401Z,102380.63
2023-02-14T19:10:09.988Z,102377.84
2023-02-14T19:12:36.869Z,102376.97
2023-02-14T19:15:03.653Z,102376.25
2023-02-14T19:17:30.252Z,102369.84
2023-02-14T19:19:57.237Z,102368.06
2023-02-14T19:22:23.889Z,102368.41
2023-02-14T19:24:52.996Z,102378.91
2023-02-14T19:27:21.479Z,102370.34
2023-02-14T19:29:48.328Z,102363.91
2023-02-14T19:32:15.022Z,102362.56
2023-02-14T19:34:41.605Z,102357.13
2023-02-14T19:37:08.305Z,102364.50
2023-02-14T19:39:34.956Z,102363.41
2023-02-14T19:42:02.239Z,102370.16
2023-02-14T19:44:30.963Z,102376.03
2023-02-14T19:47:00.206Z,102367.03
2023-02-14T19:49:28.430Z,102366.84
2023-02-14T19:51:55.644Z,102363.78
2023-02-14T19:54:25.538Z,102363.38
2023-02-14T19:56:53.422Z,102364.16
2023-02-14T19:59:21.761Z,102367.28
2023-02-14T20:01:51.236Z,102366.59
2023-02-14T20:04:29.332Z,102364.81
2023-02-14T20:06:56.659Z,102359.13
2023-02-14T20:09:24.153Z,102361.44
2023-02-14T20:11:54.412Z,102355.50
2023-02-14T20:14:47.131Z,102364.38
2023-02-14T20:17:17.939Z,102354.50
2023-02-14T20:19:44.501Z,102351.13
2023-02-14T20:22:11.081Z,102354.19
2023-02-14T20:24:37.795Z,102355.06
2023-02-14T20:27:04.536Z,102351.50
2023-02-14T20:29:31.168Z,102354.97
2023-02-14T20:31:59.901Z,102356.28
2023-02-14T20:34:27.239Z,102353.88
2023-02-14T20:36:55.545Z,102353.09
2023-02-14T20:39:26.761Z,102358.66
2023-02-14T20:41:53.955Z,102353.28
2023-02-14T20:44:21.708Z,102356.84
2023-02-14T20:46:51.563Z,102347.53
2023-02-14T20:49:19.610Z,102347.34
2023-02-14T20:51:49.573Z,102341.59
2023-02-14T20:54:20.448Z,102333.66
2023-02-14T20:56:47.428Z,102338.91
2023-02-14T20:59:15.154Z,102340.59
2023-02-14T21:01:41.775Z,102342.06
2023-02-14T21:04:08.548Z,102333.47
2023-02-14T21:06:35.778Z,102341.97
2023-02-14T21:09:03.764Z,102343.38
2023-02-14T21:11:30.596Z,102346.59
2023-02-14T21:13:59.864Z,102348.69
2023-02-14T21:16:27.574Z,102339.97
2023-02-14T21:18:59.046Z,102344.78
2023-02-14T21:21:36.340Z,102336.19
2023-02-14T21:24:12.573Z,102333.50
2023-02-14T21:26:39.569Z,102334.28
2023-02-14T21:29:06.844Z,102336.06
2023-02-14T21:31:34.366Z,102332.59
2023-02-14T21:34:02.582Z,102339.25
2023-02-14T21:36:32.146Z,102337.66
2023-02-14T21:38:59.141Z,102336.03
2023-02-14T21:41:28.313Z,102337.94
2023-02-14T21:43:58.396Z,102326.13
2023-02-14T21:46:29.332Z,102320.66
2023-02-14T21:49:16.623Z,102323.22
2023-02-14T21:51:43.810Z,102317.13
2023-02-14T21:54:11.231Z,102314.47
2023-02-14T21:56:39.177Z,102318.94
2023-02-14T21:59:06.066Z,102318.97
2023-02-14T22:01:34.868Z,102316.53
2023-02-14T22:04:07.790Z,102325.50
2023-02-14T22:06:37.221Z,102315.47
2023-02-14T22:09:04.447Z,102329.75
2023-02-14T22:11:31.429Z,102326.84
2023-02-14T22:13:59.209Z,102316.94
2023-02-14T22:16:25.866Z,102330.03
2023-02-14T22:18:52.831Z,102323.34
2023-02-14T22:21:22.593Z,102318.22
2023-02-14T22:23:49.603Z,102322.59
2023-02-14T22:26:22.944Z,102322.50
2023-02-14T22:28:51.008Z,102323.16
2023-02-14T22:31:18.887Z,102320.38
2023-02-14T22:33:46.857Z,102320.28
2023-02-14T22:36:13.844Z,102325.19
2023-02-14T22:38:40.524Z,102315.72
2023-02-14T22:41:09.154Z,102323.63
2023-02-14T22:43:36.746Z,102323.41
2023-02-14T22:46:06.044Z,102318.72
2023-02-14T22:48:34.142Z,102318.28
2023-02-14T22:51:26.681Z,102319.06
2023-02-14T22:53:59.114Z,102319.72
2023-02-14T22:56:34.294Z,102320.38
2023-02-14T22:59:06.415Z,102318.06
2023-02-14T23:01:34.368Z,102309.44
2023-02-14T23:04:03.390Z,102305.69
2023-02-14T23:06:32.431Z,102310.72
2023-02-14T23:08:59.309Z,102311.69
2023-02-14T23:11:29.014Z,102304.19
2023-02-14T23:14:14.678Z,102313.81
2023-02-14T23:17:00.588Z,102306.31
2023-02-14T23:19:48.865Z,102320.63
2023-02-14T23:22:21.443Z,102306.53
2023-02-14T23:24:50.029Z,102314.06
2023-02-14T23:27:19.147Z,102301.41
2023-02-14T23:29:46.015Z,102305.75
2023-02-14T23:32:12.960Z,102295.72
2023-02-14T23:34:42.365Z,102301.31
2023-02-14T23:37:10.292Z,102311.38
2023-02-14T23:39:37.702Z,102300.63
2023-02-14T23:42:10.618Z,102307.56
2023-02-14T23:44:37.468Z,102308.16
2023-02-14T23:47:06.315Z,102303.56
2023-02-14T23:49:34.222Z,102302.22
2023-02-14T23:52:01.714Z,102308.69
2023-02-14T23:54:28.338Z,102309.34
2023-02-14T23:56:55.406Z,102307.81
2023-02-14T23:59:22.194Z,102298.22
